sensor_id;sensor_type;location;lat;lon;timestamp;temperature;humidity
16116;DHT22;8162;47.104;15.432;2024-02-26T11:57:44;7.20;72.50
16116;DHT22;8162;47.104;15.432;2024-02-26T12:37:10;11.40;54.20
16116;DHT22;8162;47.104;15.432;2024-02-26T12:40:11;11.80;54.10
16116;DHT22;8162;47.104;15.432;2024-02-26T12:43:13;11.90;54.50
16116;DHT22;8162;47.104;15.432;2024-02-26T12:46:15;12.10;55.60
16116;DHT22;8162;47.104;15.432;2024-02-26T12:49:16;12.40;54.30
16116;DHT22;8162;47.104;15.432;2024-02-26T12:52:18;12.50;52.60
16116;DHT22;8162;47.104;15.432;2024-02-26T12:55:20;12.70;52.20
16116;DHT22;8162;47.104;15.432;2024-02-26T14:53:17;12.80;51.50
16116;DHT22;8162;47.104;15.432;2024-02-26T14:56:18;11.70;49.00
16116;DHT22;8162;47.104;15.432;2024-02-26T14:59:19;11.70;49.70
16116;DHT22;8162;47.104;15.432;2024-02-26T15:02:20;11.60;50.50
16116;DHT22;8162;47.104;15.432;2024-02-26T15:05:20;11.60;50.20
16116;DHT22;8162;47.104;15.432;2024-02-26T15:08:21;11.50;51.30
16116;DHT22;8162;47.104;15.432;2024-02-26T15:11:22;11.50;51.50
16116;DHT22;8162;47.104;15.432;2024-02-26T15:14:23;11.40;52.80
16116;DHT22;8162;47.104;15.432;2024-02-26T15:17:26;11.40;53.50
16116;DHT22;8162;47.104;15.432;2024-02-26T15:20:28;11.40;54.20
16116;DHT22;8162;47.104;15.432;2024-02-26T15:23:30;11.30;54.50
16116;DHT22;8162;47.104;15.432;2024-02-26T15:26:31;11.20;55.30
16116;DHT22;8162;47.104;15.432;2024-02-26T15:29:32;11.10;55.90
16116;DHT22;8162;47.104;15.432;2024-02-26T15:32:32;11.10;56.40
16116;DHT22;8162;47.104;15.432;2024-02-26T15:35:33;11.00;56.50
16116;DHT22;8162;47.104;15.432;2024-02-26T15:38:34;11.00;56.60
16116;DHT22;8162;47.104;15.432;2024-02-26T15:41:34;10.90;56.70
16116;DHT22;8162;47.104;15.432;2024-02-26T15:44:37;10.80;56.50
16116;DHT22;8162;47.104;15.432;2024-02-26T15:53:43;10.80;56.50
16116;DHT22;8162;47.104;15.432;2024-02-26T15:56:43;10.50;56.00
16116;DHT22;8162;47.104;15.432;2024-02-26T15:59:44;10.50;56.60
16116;DHT22;8162;47.104;15.432;2024-02-26T16:05:49;10.50;55.00
16116;DHT22;8162;47.104;15.432;2024-02-26T16:08:50;10.30;55.00
16116;DHT22;8162;47.104;15.432;2024-02-26T16:11:51;10.30;55.00
16116;DHT22;8162;47.104;15.432;2024-02-26T16:14:52;10.20;56.20
16116;DHT22;8162;47.104;15.432;2024-02-26T16:17:53;10.20;57.10
16116;DHT22;8162;47.104;15.432;2024-02-26T16:20:56;10.20;57.60
16116;DHT22;8162;47.104;15.432;2024-02-26T16:23:57;10.10;57.50
16116;DHT22;8162;47.104;15.432;2024-02-26T16:26:58;10.00;58.00
16116;DHT22;8162;47.104;15.432;2024-02-26T16:29:59;10.00;58.30
16116;DHT22;8162;47.104;15.432;2024-02-26T16:33:00;10.00;58.60
16116;DHT22;8162;47.104;15.432;2024-02-26T16:36:01;9.90;58.50
16116;DHT22;8162;47.104;15.432;2024-02-26T20:10:56;8.90;64.20
16116;DHT22;8162;47.104;15.432;2024-02-26T20:13:59;7.20;71.20
16116;DHT22;8162;47.104;15.432;2024-02-26T20:17:01;7.20;71.20
16116;DHT22;8162;47.104;15.432;2024-02-26T20:20:03;7.10;71.10
16116;DHT22;8162;47.104;15.432;2024-02-26T20:23:05;7.10;70.90
16116;DHT22;8162;47.104;15.432;2024-02-26T20:26:07;7.00;71.00
16116;DHT22;8162;47.104;15.432;2024-02-26T20:29:08;7.00;71.80
16116;DHT22;8162;47.104;15.432;2024-02-26T20:32:10;6.90;71.60
16116;DHT22;8162;47.104;15.432;2024-02-26T20:35:12;6.90;71.50
16116;DHT22;8162;47.104;15.432;2024-02-26T20:38:13;6.80;71.70
16116;DHT22;8162;47.104;15.432;2024-02-26T20:41:18;6.70;72.00
16116;DHT22;8162;47.104;15.432;2024-02-26T20:44:19;6.70;71.90
16116;DHT22;8162;47.104;15.432;2024-02-26T20:47:21;6.70;71.70
16116;DHT22;8162;47.104;15.432;2024-02-26T20:50:23;6.60;71.90
16116;DHT22;8162;47.104;15.432;2024-02-26T20:53:24;6.70;72.50
16116;DHT22;8162;47.104;15.432;2024-02-26T20:56:27;6.60;72.20
16116;DHT22;8162;47.104;15.432;2024-02-26T20:59:29;6.50;72.30
16116;DHT22;8162;47.104;15.432;2024-02-26T21:02:32;6.50;72.00
16116;DHT22;8162;47.104;15.432;2024-02-26T21:05:34;6.40;72.20
16116;DHT22;8162;47.104;15.432;2024-02-26T21:08:39;6.40;72.60
16116;DHT22;8162;47.104;15.432;2024-02-26T21:11:39;6.40;72.70
16116;DHT22;8162;47.104;15.432;2024-02-26T21:35:53;6.40;73.00
16116;DHT22;8162;47.104;15.432;2024-02-26T21:38:54;5.80;74.20
16116;DHT22;8162;47.104;15.432;2024-02-26T21:41:54;5.80;74.60
16116;DHT22;8162;47.104;15.432;2024-02-26T21:44:55;5.80;74.70
16116;DHT22;8162;47.104;15.432;2024-02-26T21:47:56;5.70;74.90
16116;DHT22;8162;47.104;15.432;2024-02-26T21:50:56;5.70;74.40
16116;DHT22;8162;47.104;15.432;2024-02-26T21:53:57;5.70;74.50
16116;DHT22;8162;47.104;15.432;2024-02-26T21:56:58;5.70;74.80
16116;DHT22;8162;47.104;15.432;2024-02-26T21:59:59;5.70;74.80
16116;DHT22;8162;47.104;15.432;2024-02-26T22:02:59;5.70;74.50
16116;DHT22;8162;47.104;15.432;2024-02-26T22:06:00;5.70;75.10
16116;DHT22;8162;47.104;15.432;2024-02-26T22:09:01;5.70;74.60
16116;DHT22;8162;47.104;15.432;2024-02-26T22:12:02;5.70;73.80
16116;DHT22;8162;47.104;15.432;2024-02-26T23:00:23;5.60;74.30
16116;DHT22;8162;47.104;15.432;2024-02-26T23:03:30;5.40;74.70
16116;DHT22;8162;47.104;15.432;2024-02-26T23:06:30;5.40;74.70
16116;DHT22;8162;47.104;15.432;2024-02-26T23:09:32;5.40;74.70
16116;DHT22;8162;47.104;15.432;2024-02-26T23:12:35;5.40;74.90
16116;DHT22;8162;47.104;15.432;2024-02-26T23:18:37;5.30;74.40
16116;DHT22;8162;47.104;15.432;2024-02-26T23:21:37;5.10;74.60
16116;DHT22;8162;47.104;15.432;2024-02-26T23:24:38;5.10;74.80
16116;DHT22;8162;47.104;15.432;2024-02-26T23:27:41;5.10;74.70
16116;DHT22;8162;47.104;15.432;2024-02-26T23:30:41;5.00;74.90
16116;DHT22;8162;47.104;15.432;2024-02-26T23:33:42;4.90;75.00
16116;DHT22;8162;47.104;15.432;2024-02-26T23:36:43;4.90;75.40
16116;DHT22;8162;47.104;15.432;2024-02-26T23:39:48;4.90;75.90
16116;DHT22;8162;47.104;15.432;2024-02-26T23:42:49;4.90;76.00
16116;DHT22;8162;47.104;15.432;2024-02-26T23:45:50;4.70;76.30
16116;DHT22;8162;47.104;15.432;2024-02-26T23:48:50;4.70;76.20
16116;DHT22;8162;47.104;15.432;2024-02-26T23:51:52;4.70;76.00
16116;DHT22;8162;47.104;15.432;2024-02-26T23:54:53;4.60;76.20
16116;DHT22;8162;47.104;15.432;2024-02-26T23:57:53;4.50;77.00
